Time;durP1;ratioP1;P1;durP2;ratioP2;P2;SDS_P1;SDS_P2;PMS_P1;PMS_P2;Temp;Humidity;BMP_temperature;BMP_pressure;BME280_temperature;BME280_humidity;BME280_pressure;Samples;Min_cycle;Max_cycle;Signal;HPM_P1;HPM_P2
2023/07/12 00:00:47;;;;;;;3.33;1.52;;;23.70;70.00;;;24.40;51.59;99822.84;4947317;28;20082;-82
2023/07/12 00:03:15;;;;;;;3.88;1.45;;;23.60;69.90;;;24.40;51.57;99822.84;4950465;28;20066;-82
2023/07/12 00:05:43;;;;;;;3.60;1.40;;;23.60;69.60;;;24.29;51.47;99830.50;4956117;28;20139;-82
2023/07/12 00:08:19;;;;;;;4.68;1.52;;;23.50;69.50;;;24.35;51.20;99832.00;4956196;28;20055;-82
2023/07/12 00:10:49;;;;;;;4.40;1.52;;;23.50;69.50;;;24.33;51.51;99833.41;4950603;29;20039;-82
2023/07/12 00:13:18;;;;;;;3.22;1.20;;;23.50;69.70;;;24.18;51.60;99825.69;4943872;29;20144;-82
2023/07/12 00:15:47;;;;;;;5.10;1.70;;;23.30;69.80;;;24.17;51.76;99835.00;4937314;29;20092;-82
2023/07/12 00:18:17;;;;;;;4.65;1.40;;;23.30;69.90;;;24.21;51.51;99841.41;4954124;28;20840;-82
2023/07/12 00:20:45;;;;;;;4.47;1.25;;;23.30;69.90;;;24.09;51.79;99831.91;4956208;28;20074;-82
2023/07/12 00:23:15;;;;;;;4.00;1.30;;;23.20;70.30;;;24.11;52.18;99832.41;4953934;28;20138;-82
2023/07/12 00:25:44;;;;;;;4.20;1.23;;;23.20;70.90;;;24.12;52.39;99834.03;4954126;28;20043;-82
2023/07/12 00:28:23;;;;;;;3.38;1.20;;;23.20;71.30;;;24.10;52.23;99832.72;4953834;29;20057;-82
2023/07/12 00:30:51;;;;;;;3.50;1.30;;;23.20;71.10;;;24.14;52.54;99833.69;4964582;28;20145;-82
2023/07/12 00:33:20;;;;;;;4.13;1.00;;;23.20;71.50;;;24.18;52.82;99831.94;4953702;28;20035;-82
2023/07/12 00:35:49;;;;;;;2.88;1.15;;;23.20;71.90;;;24.18;52.42;99822.97;4953914;29;20043;-82
2023/07/12 00:38:20;;;;;;;3.05;1.40;;;23.20;71.60;;;24.15;52.42;99835.28;4937560;28;20718;-82
2023/07/12 00:41:16;;;;;;;4.00;1.15;;;23.20;71.80;;;24.15;52.72;99836.09;4954386;28;20167;-82
2023/07/12 00:43:52;;;;;;;4.30;1.30;;;23.20;71.90;;;24.18;52.70;99828.41;4950040;28;20058;-82
2023/07/12 00:46:30;;;;;;;4.03;1.42;;;23.20;72.00;;;24.20;52.94;99826.16;4953648;28;20461;-82
2023/07/12 00:48:58;;;;;;;3.05;1.08;;;23.20;72.10;;;24.20;53.04;99832.41;4952967;28;20075;-82
2023/07/12 00:51:47;;;;;;;3.72;1.40;;;23.20;72.30;;;24.18;52.76;99825.69;4951695;28;20807;-82
2023/07/12 00:54:18;;;;;;;3.22;1.23;;;23.10;72.00;;;24.14;52.83;99826.31;4958670;28;20062;-82
2023/07/12 00:56:45;;;;;;;5.10;1.38;;;23.10;72.30;;;24.15;52.78;99830.63;4955905;28;20126;-82
2023/07/12 00:59:20;;;;;;;4.45;1.27;;;23.10;72.40;;;24.17;53.11;99845.91;4951365;28;20530;-82
2023/07/12 01:01:52;;;;;;;4.35;1.50;;;23.10;72.70;;;24.16;52.98;99839.66;4953511;28;20571;-82
2023/07/12 01:04:26;;;;;;;5.63;1.92;;;23.10;72.90;;;24.10;53.21;99840.88;4962635;28;20054;-82
2023/07/12 01:06:55;;;;;;;4.63;1.55;;;23.00;72.80;;;24.10;52.97;99840.88;4952308;28;20102;-82
2023/07/12 01:09:23;;;;;;;3.50;1.63;;;23.00;72.60;;;24.09;53.04;99831.13;4944668;28;20042;-82
2023/07/12 01:11:51;;;;;;;7.20;1.70;;;23.00;72.70;;;24.07;53.17;99815.09;4951032;28;20078;-82
2023/07/12 01:14:20;;;;;;;4.95;1.80;;;23.00;72.90;;;24.09;53.52;99801.94;4962517;28;20126;-82
2023/07/12 01:16:51;;;;;;;4.43;1.80;;;23.00;73.30;;;24.09;53.10;99807.41;4949566;28;20539;-82
2023/07/12 01:19:18;;;;;;;4.20;2.03;;;23.00;73.10;;;24.07;53.32;99808.84;4953989;28;20082;-82
2023/07/12 01:21:51;;;;;;;5.20;2.25;;;23.00;73.20;;;24.07;53.59;99798.75;4953857;28;20149;-82
2023/07/12 01:24:19;;;;;;;4.45;1.80;;;23.00;73.60;;;24.06;53.51;99799.88;4950664;28;20445;-82
2023/07/12 01:26:50;;;;;;;6.22;2.13;;;23.00;73.70;;;24.04;53.74;99804.81;4955996;28;20043;-82
2023/07/12 01:29:18;;;;;;;7.68;2.30;;;22.90;73.90;;;24.04;54.05;99814.91;4951159;28;20051;-82
2023/07/12 01:31:47;;;;;;;6.93;1.80;;;22.90;74.40;;;24.02;54.05;99817.97;4954071;29;20047;-82
2023/07/12 01:34:16;;;;;;;4.97;2.20;;;22.90;74.40;;;24.00;53.95;99824.84;4951438;29;20075;-82
2023/07/12 01:36:44;;;;;;;7.10;2.20;;;22.90;74.40;;;23.97;53.96;99826.28;4941836;29;20054;-82
2023/07/12 01:39:13;;;;;;;5.90;2.15;;;22.80;74.50;;;23.95;54.42;99836.69;4949407;28;20428;-82
2023/07/12 01:41:40;;;;;;;6.70;2.30;;;22.80;74.70;;;23.94;54.10;99845.19;4945595;28;20046;-82
2023/07/12 01:44:08;;;;;;;6.05;2.60;;;22.80;74.50;;;23.91;54.58;99854.78;4946703;28;20090;-82
2023/07/12 01:46:35;;;;;;;6.25;2.40;;;22.80;74.90;;;23.88;54.37;99869.03;4970176;28;20074;-82
2023/07/12 01:49:05;;;;;;;7.20;2.30;;;22.80;74.80;;;23.84;54.62;99871.59;4952390;28;20468;-82
2023/07/12 01:51:33;;;;;;;7.00;2.67;;;22.80;75.20;;;23.84;54.59;99849.00;4936653;28;20070;-82
2023/07/12 01:54:00;;;;;;;6.82;2.65;;;22.80;75.20;;;23.82;54.65;99878.47;4961215;28;20035;-82
2023/07/12 01:56:29;;;;;;;6.00;2.42;;;22.80;75.10;;;23.80;54.67;99907.94;4973043;28;20078;-82
2023/07/12 01:58:57;;;;;;;4.55;2.35;;;22.70;75.20;;;23.78;54.78;99904.72;4951471;28;20113;-82
2023/07/12 02:01:24;;;;;;;9.85;2.50;;;22.70;75.20;;;23.77;54.75;99919.47;4971288;28;20400;-82
2023/07/12 02:03:51;;;;;;;6.85;2.40;;;22.70;75.20;;;23.76;54.76;99912.38;4957382;28;20063;-82
2023/07/12 02:06:18;;;;;;;11.05;2.67;;;22.70;75.10;;;23.75;54.53;99910.78;4969890;28;20047;-82
2023/07/12 02:08:46;;;;;;;5.00;2.05;;;22.70;75.10;;;23.72;54.61;99895.06;4950100;29;20043;-82
2023/07/12 02:11:14;;;;;;;6.75;1.77;;;22.70;75.20;;;23.67;55.04;99863.34;4955619;28;20040;-82
2023/07/12 02:13:43;;;;;;;6.03;1.70;;;22.70;75.40;;;23.60;54.55;99874.63;4956323;29;20514;-82
2023/07/12 02:16:11;;;;;;;4.93;1.70;;;22.60;74.80;;;23.59;54.68;99883.94;4957762;28;20043;-82
2023/07/12 02:18:38;;;;;;;4.47;1.77;;;22.60;74.70;;;23.59;54.56;99892.09;4979506;28;20143;-82
2023/07/12 02:21:05;;;;;;;4.03;1.80;;;22.60;75.00;;;23.52;54.49;99880.88;4955652;28;20182;-82
2023/07/12 02:23:34;;;;;;;7.07;2.20;;;22.50;75.00;;;23.51;54.58;99873.00;4962594;28;20139;-82
2023/07/12 02:26:04;;;;;;;4.85;1.85;;;22.50;74.60;;;23.47;54.28;99889.13;4950821;28;20059;-82
2023/07/12 02:28:31;;;;;;;4.20;1.80;;;22.50;74.50;;;23.48;54.53;99912.53;4942184;28;20086;-82
2023/07/12 02:31:20;;;;;;;4.05;1.95;;;22.40;74.80;;;23.46;55.07;99914.75;4948904;28;20070;-82
2023/07/12 02:33:48;;;;;;;7.50;1.98;;;22.40;75.80;;;23.40;56.03;99891.50;4956272;29;20047;-82
2023/07/12 02:36:15;;;;;;;3.88;1.45;;;22.40;76.60;;;23.36;56.16;99893.22;4957853;28;20090;-82
2023/07/12 02:38:42;;;;;;;7.82;2.10;;;22.30;77.10;;;23.27;56.31;99903.25;4955894;28;20576;-82
2023/07/12 02:41:10;;;;;;;4.60;1.80;;;22.30;77.30;;;23.18;56.71;99918.72;4948677;29;20138;-82
2023/07/12 02:43:37;;;;;;;3.95;1.75;;;22.20;77.60;;;23.21;56.90;99939.88;4956811;28;20039;-82
2023/07/12 02:46:05;;;;;;;5.65;1.85;;;22.20;78.20;;;23.19;56.31;99939.38;4951377;28;20528;-82
2023/07/12 02:48:33;;;;;;;5.82;2.00;;;22.10;77.60;;;23.19;56.65;99983.72;4959110;28;20040;-82
2023/07/12 02:51:00;;;;;;;6.30;2.10;;;22.10;77.90;;;23.18;57.47;99994.88;4949672;28;20111;-82
2023/07/12 02:53:29;;;;;;;14.45;2.90;;;22.10;78.60;;;23.16;57.99;99953.59;4943114;28;20043;-82
2023/07/12 02:55:56;;;;;;;9.70;2.70;;;22.10;79.80;;;23.10;59.28;99945.56;4957364;28;20484;-82
2023/07/12 02:58:24;;;;;;;8.48;2.75;;;22.00;81.10;;;23.02;59.09;99965.31;4957498;28;20062;-82
2023/07/12 03:00:57;;;;;;;7.57;2.78;;;21.90;81.20;;;23.04;58.82;99973.19;4954355;28;20046;-82
2023/07/12 03:03:25;;;;;;;9.57;2.17;;;21.90;81.20;;;23.07;58.97;99973.34;4955391;28;20052;-82
2023/07/12 03:05:53;;;;;;;8.55;2.45;;;21.90;81.50;;;23.03;59.40;99950.59;4955645;28;20047;-82
2023/07/12 03:08:20;;;;;;;7.40;2.22;;;21.80;81.80;;;22.99;59.46;99960.50;4957347;28;20081;-82
2023/07/12 03:10:48;;;;;;;6.68;2.03;;;21.80;82.00;;;22.95;60.13;99969.59;4949414;28;20126;-82
2023/07/12 03:13:15;;;;;;;5.72;2.28;;;21.80;82.70;;;22.87;60.27;99971.88;4956805;28;20043;-82
2023/07/12 03:15:42;;;;;;;9.15;2.50;;;21.70;82.80;;;22.83;59.90;99995.34;4956097;28;20087;-82
2023/07/12 03:18:09;;;;;;;8.02;2.65;;;21.70;82.70;;;22.80;60.16;100022.34;4958609;28;20872;-82
2023/07/12 03:20:36;;;;;;;6.57;2.63;;;21.70;82.80;;;22.73;60.06;100044.50;4954159;28;20067;-82
2023/07/12 03:23:05;;;;;;;8.57;2.55;;;21.60;82.60;;;22.69;59.78;100038.03;4952706;29;20134;-81
2023/07/12 03:25:32;;;;;;;9.68;2.70;;;21.60;82.50;;;22.63;60.26;99979.44;4955842;29;20511;-81
2023/07/12 03:28:00;;;;;;;10.27;2.85;;;21.50;82.90;;;22.66;60.17;99978.06;4949070;28;20074;-81
2023/07/12 03:30:28;;;;;;;6.05;2.38;;;21.50;82.80;;;22.66;59.35;100005.25;4955860;28;20142;-81
2023/07/12 03:32:55;;;;;;;8.05;2.55;;;21.50;82.20;;;22.62;59.56;99994.97;4955413;28;20102;-81
2023/07/12 03:35:23;;;;;;;8.65;2.55;;;21.40;82.40;;;22.60;59.55;99994.47;4957343;28;20518;-81
2023/07/12 03:37:50;;;;;;;10.43;2.45;;;21.40;82.50;;;22.58;59.59;99974.13;4962290;28;20569;-81
2023/07/12 03:40:18;;;;;;;6.95;2.20;;;21.40;82.70;;;22.55;59.77;99989.13;4952874;28;20431;-81
2023/07/12 03:42:46;;;;;;;6.20;2.10;;;21.30;82.70;;;22.52;59.84;99983.50;4962717;28;20050;-81
2023/07/12 03:45:13;;;;;;;8.93;2.40;;;21.30;83.00;;;22.51;59.95;99977.25;4956201;28;20126;-81
2023/07/12 03:47:40;;;;;;;6.47;2.13;;;21.30;83.10;;;22.53;59.71;99968.78;4955759;28;20039;-81
2023/07/12 03:50:08;;;;;;;6.40;2.13;;;21.30;82.90;;;22.51;59.59;99952.78;4942054;28;20055;-81
2023/07/12 03:52:35;;;;;;;7.75;2.28;;;21.20;82.70;;;22.50;59.64;99948.47;4961962;28;20039;-81
2023/07/12 03:55:03;;;;;;;4.88;2.22;;;21.30;83.10;;;22.50;59.31;99955.81;4967830;28;20137;-81
2023/07/12 03:57:32;;;;;;;6.28;2.00;;;21.30;82.70;;;22.46;58.93;99952.09;4941923;29;20382;-81
2023/07/12 03:59:59;;;;;;;6.90;2.13;;;21.20;82.30;;;22.45;59.08;99939.59;4955654;28;20047;-81
2023/07/12 04:02:26;;;;;;;7.07;2.15;;;21.20;82.40;;;22.45;59.38;99945.88;4954300;29;20504;-81
2023/07/12 04:04:53;;;;;;;11.98;2.15;;;21.20;82.60;;;22.41;58.99;99944.84;4956216;28;20126;-81
2023/07/12 04:07:21;;;;;;;6.63;2.53;;;21.20;82.30;;;22.37;58.84;99941.13;4944612;28;20138;-81
2023/07/12 04:09:48;;;;;;;6.50;2.50;;;21.10;82.50;;;22.31;59.40;99932.28;4959134;28;20150;-82
2023/07/12 04:12:15;;;;;;;6.70;2.45;;;21.00;82.90;;;22.29;59.33;99936.41;4955614;28;20118;-82
2023/07/12 04:14:44;;;;;;;6.00;2.70;;;21.00;83.00;;;22.28;59.69;99940.22;4962766;28;20182;-82
2023/07/12 04:17:11;;;;;;;8.15;2.50;;;21.00;83.40;;;22.24;59.77;99950.88;4952720;29;20118;-81
2023/07/12 04:19:38;;;;;;;5.28;2.30;;;21.00;83.30;;;22.18;59.90;99956.72;4954137;28;20078;-82
2023/07/12 04:22:06;;;;;;;7.00;2.25;;;21.00;83.30;;;22.14;59.96;99950.28;4953565;28;20039;-82
2023/07/12 04:24:33;;;;;;;6.35;2.40;;;20.90;83.70;;;22.16;59.75;99954.31;4953911;28;20063;-82
2023/07/12 04:27:00;;;;;;;5.22;1.85;;;20.90;83.60;;;22.06;59.78;99943.63;4955286;28;20043;-82
2023/07/12 04:29:29;;;;;;;7.65;2.35;;;20.90;83.20;;;22.07;60.11;99962.31;4944067;29;20082;-82
2023/07/12 04:31:57;;;;;;;4.55;1.65;;;20.90;83.70;;;22.07;60.11;99956.09;4952063;28;20058;-82
2023/07/12 04:34:24;;;;;;;7.18;1.98;;;20.90;83.70;;;22.08;60.07;99958.50;4953847;29;20465;-82
2023/07/12 04:36:53;;;;;;;5.35;2.08;;;20.90;83.70;;;22.07;60.01;99965.03;4943343;28;20117;-82
2023/07/12 04:39:20;;;;;;;5.13;2.00;;;20.90;83.60;;;22.03;59.84;99952.34;4953186;28;20546;-82
2023/07/12 04:41:47;;;;;;;3.97;1.45;;;20.80;83.30;;;22.01;59.85;99935.53;4944688;28;20138;-82
2023/07/12 04:44:15;;;;;;;5.07;1.77;;;20.80;83.70;;;22.02;59.39;99964.31;4954738;28;20039;-82
2023/07/12 04:46:42;;;;;;;6.88;1.67;;;20.80;83.20;;;21.98;59.79;99955.97;4946372;28;20093;-82
2023/07/12 04:49:11;;;;;;;5.43;1.70;;;20.80;83.50;;;21.97;60.12;99957.06;4950294;28;20498;-81
2023/07/12 04:51:38;;;;;;;4.85;1.60;;;20.80;83.70;;;21.95;59.81;99967.41;4953916;28;20147;-81
2023/07/12 04:54:06;;;;;;;5.65;1.90;;;20.80;83.70;;;21.96;59.90;99966.34;4970266;28;20040;-81
2023/07/12 04:56:33;;;;;;;3.25;1.13;;;20.80;83.70;;;21.89;59.64;99965.91;4955499;28;20074;-81
2023/07/12 04:59:00;;;;;;;3.75;1.45;;;20.70;83.20;;;21.91;59.55;99963.72;4950284;28;20036;-81
2023/07/12 05:01:28;;;;;;;4.88;1.45;;;20.70;83.40;;;21.91;59.62;99968.31;4949139;28;20714;-81
2023/07/12 05:03:55;;;;;;;5.47;1.35;;;20.70;83.50;;;22.05;59.51;99977.28;4954800;28;20127;-81
2023/07/12 05:06:24;;;;;;;4.03;1.52;;;20.90;83.00;;;22.25;59.56;99987.84;4950501;29;20052;-82
2023/07/12 05:08:52;;;;;;;4.35;1.55;;;21.10;83.00;;;22.40;59.88;99984.00;4964042;28;20130;-82
2023/07/12 05:11:19;;;;;;;5.20;1.48;;;21.30;83.00;;;22.51;58.84;99984.63;4947197;29;20050;-82
2023/07/12 05:13:47;;;;;;;4.40;1.90;;;21.40;81.90;;;22.61;58.79;99984.41;4953528;29;20119;-82
2023/07/12 05:16:14;;;;;;;5.95;1.40;;;21.50;81.40;;;22.70;58.52;99984.50;4961573;28;20047;-82
2023/07/12 05:18:41;;;;;;;5.90;1.55;;;21.70;81.00;;;22.81;59.52;99997.56;4953895;28;20467;-82
2023/07/12 05:21:08;;;;;;;4.30;1.45;;;21.80;82.00;;;22.70;58.97;99992.66;4954542;28;20727;-82
2023/07/12 05:23:39;;;;;;;3.83;1.40;;;21.80;81.20;;;22.46;59.09;99995.59;4954903;28;20042;-82
2023/07/12 05:26:07;;;;;;;3.35;1.35;;;21.50;81.60;;;22.34;59.46;100002.31;4955131;28;20122;-81
2023/07/12 05:28:35;;;;;;;3.40;1.30;;;21.40;81.90;;;22.24;59.69;99996.25;4958784;28;20134;-81
2023/07/12 05:31:07;;;;;;;3.60;1.60;;;21.20;82.00;;;22.18;60.08;99997.47;4965803;28;20118;-81
2023/07/12 05:33:34;;;;;;;3.95;1.60;;;21.20;82.70;;;22.10;60.28;100007.88;4959358;28;20097;-81
2023/07/12 05:36:03;;;;;;;3.45;1.38;;;21.10;83.10;;;22.05;60.51;100007.16;4959320;28;20039;-81
2023/07/12 05:38:30;;;;;;;3.75;1.50;;;21.00;83.50;;;21.97;60.08;100016.81;4958865;28;20106;-81
2023/07/12 05:41:00;;;;;;;3.97;1.40;;;21.00;83.00;;;21.95;60.51;100026.34;4961622;28;20122;-82
2023/07/12 05:43:28;;;;;;;4.22;1.50;;;20.90;83.50;;;21.94;60.44;100022.84;4965827;28;20496;-82
2023/07/12 05:45:56;;;;;;;4.93;1.50;;;20.90;83.70;;;21.81;60.79;100027.13;4963399;28;20050;-82
2023/07/12 05:48:24;;;;;;;4.03;1.42;;;20.80;83.90;;;21.79;60.77;100029.31;4963626;28;20047;-82
2023/07/12 05:50:53;;;;;;;4.15;1.52;;;20.80;84.10;;;21.72;60.35;100034.34;4953691;28;20063;-82
2023/07/12 05:53:20;;;;;;;2.38;1.15;;;20.80;83.50;;;21.69;61.00;100047.69;4953047;29;20043;-82
2023/07/12 05:55:47;;;;;;;5.53;1.60;;;20.70;84.30;;;21.60;61.12;100039.41;4958158;28;20085;-82
2023/07/12 05:58:16;;;;;;;5.00;1.40;;;20.60;84.40;;;21.59;61.02;100049.47;4939657;29;20051;-82
2023/07/12 06:00:43;;;;;;;2.83;1.40;;;20.60;84.40;;;21.63;61.42;100054.31;4950199;29;20078;-82
2023/07/12 06:03:11;;;;;;;3.47;1.70;;;20.60;84.70;;;21.53;61.19;100061.50;4956908;29;20039;-82
2023/07/12 06:05:44;;;;;;;3.90;1.48;;;20.50;84.40;;;21.53;61.27;100061.50;4951797;28;20091;-82
2023/07/12 06:08:11;;;;;;;3.22;1.38;;;20.60;84.90;;;21.54;61.63;100065.00;4963977;28;20075;-82
2023/07/12 06:10:39;;;;;;;5.70;1.70;;;20.50;85.30;;;21.50;61.57;100066.69;4940584;29;20059;-81
2023/07/12 06:13:09;;;;;;;4.43;1.60;;;20.50;85.20;;;21.49;61.79;100074.03;4957772;28;20127;-81
2023/07/12 06:15:38;;;;;;;3.43;1.43;;;20.50;85.00;;;21.33;61.81;100070.75;4953696;28;20393;-82
2023/07/12 06:18:06;;;;;;;3.17;1.35;;;20.40;84.90;;;21.39;61.69;100066.03;4956865;28;20671;-82
2023/07/12 06:20:33;;;;;;;4.03;1.50;;;20.40;85.30;;;21.35;62.22;100075.88;4950253;28;20143;-82
2023/07/12 06:23:00;;;;;;;4.75;1.70;;;20.40;85.40;;;21.31;62.30;100072.13;4966665;28;20143;-82
2023/07/12 06:25:27;;;;;;;5.20;1.50;;;20.40;85.70;;;21.29;61.97;100074.28;4956808;28;20507;-82
2023/07/12 06:27:55;;;;;;;4.10;1.77;;;20.30;85.50;;;21.30;61.82;100084.88;4967886;28;20043;-82
2023/07/12 06:30:22;;;;;;;4.05;1.60;;;20.30;85.50;;;21.33;62.24;100088.94;4971560;28;20043;-82
2023/07/12 06:32:51;;;;;;;4.57;1.77;;;20.40;85.60;;;21.27;62.61;100084.63;4967686;28;20133;-82
2023/07/12 06:35:18;;;;;;;6.40;1.63;;;20.40;85.70;;;21.29;62.57;100077.81;4960053;28;20142;-82
2023/07/12 06:37:46;;;;;;;8.05;2.33;;;20.40;85.90;;;21.39;62.77;100086.94;4958092;28;20075;-82
2023/07/12 06:40:13;;;;;;;4.63;2.22;;;20.50;86.10;;;21.57;63.40;100084.25;4955994;28;20046;-82
2023/07/12 06:42:41;;;;;;;5.63;2.38;;;20.80;86.60;;;21.83;63.03;100089.28;4957222;28;20126;-82
2023/07/12 06:45:11;;;;;;;6.90;2.40;;;21.10;85.70;;;22.08;63.16;100098.94;4969372;28;20043;-81
2023/07/12 06:47:38;;;;;;;5.95;2.47;;;21.50;85.80;;;22.24;62.30;100089.44;4962191;28;20089;-82
2023/07/12 06:50:08;;;;;;;7.25;2.63;;;21.80;83.70;;;22.32;62.27;100093.41;4956606;28;20478;-82
2023/07/12 06:52:35;;;;;;;6.45;2.53;;;21.90;83.40;;;22.20;61.80;100090.31;4948422;29;20047;-82
2023/07/12 06:55:04;;;;;;;9.07;3.05;;;21.80;82.70;;;21.95;60.38;100096.97;4960172;28;20040;-82
2023/07/12 06:57:31;;;;;;;9.80;3.00;;;21.60;81.20;;;21.98;60.47;100088.22;4955961;28;20053;-82
2023/07/12 06:59:58;;;;;;;6.70;2.22;;;21.50;81.60;;;22.13;60.73;100103.50;4955737;28;20126;-82
2023/07/12 07:02:25;;;;;;;9.13;2.72;;;21.70;82.00;;;22.28;60.66;100103.25;4955700;28;20083;-82
2023/07/12 07:04:53;;;;;;;9.65;3.05;;;21.90;81.60;;;22.34;59.47;100100.13;4955681;28;20071;-82
2023/07/12 07:07:21;;;;;;;9.90;3.05;;;22.00;80.10;;;22.16;59.48;100106.44;4954966;28;20043;-82
2023/07/12 07:09:49;;;;;;;8.90;2.65;;;21.80;80.00;;;22.17;60.32;100096.38;4949605;28;20079;-83
2023/07/12 07:12:16;;;;;;;10.40;3.30;;;21.70;81.20;;;22.15;61.17;100098.56;4955458;28;20073;-82
2023/07/12 07:14:44;;;;;;;8.48;3.08;;;21.70;82.10;;;22.17;60.90;100102.59;4958358;28;20083;-82
2023/07/12 07:17:11;;;;;;;8.07;3.20;;;21.70;81.80;;;22.19;60.84;100102.31;4952140;29;20071;-82
2023/07/12 07:19:39;;;;;;;12.20;3.50;;;21.70;82.20;;;22.32;60.69;100102.34;4955866;28;20043;-82
2023/07/12 07:22:07;;;;;;;9.85;3.28;;;21.80;81.60;;;22.29;59.60;100099.41;4962774;28;20138;-82
2023/07/12 07:24:36;;;;;;;10.32;3.17;;;21.80;80.70;;;22.27;60.54;100096.19;4957177;28;20079;-82
2023/07/12 07:27:03;;;;;;;7.80;3.17;;;21.70;81.90;;;22.23;60.29;100106.03;4955568;28;20047;-82
2023/07/12 07:29:31;;;;;;;8.45;3.55;;;21.60;81.60;;;22.14;60.70;100105.09;4951302;28;20044;-82
2023/07/12 07:31:58;;;;;;;7.68;2.85;;;21.60;82.00;;;22.05;60.33;100105.75;4926672;29;20067;-82
2023/07/12 07:34:25;;;;;;;9.25;2.90;;;21.60;81.20;;;22.23;61.40;100103.31;4972416;28;20125;-82
2023/07/12 07:36:52;;;;;;;9.13;2.70;;;21.80;82.70;;;22.39;60.55;100109.31;4971708;28;20057;-82
2023/07/12 07:39:19;;;;;;;9.25;2.42;;;22.00;80.90;;;22.59;60.25;100108.94;4958354;28;20054;-82
2023/07/12 07:41:48;;;;;;;7.85;2.33;;;22.30;80.60;;;22.63;61.00;100108.03;4972088;28;20065;-82
2023/07/12 07:44:15;;;;;;;7.40;2.00;;;22.40;80.80;;;22.65;59.31;100113.19;4956800;28;20051;-82
2023/07/12 07:46:42;;;;;;;7.38;2.33;;;22.40;79.30;;;22.70;59.95;100104.13;4956043;28;20126;-82
2023/07/12 07:49:09;;;;;;;9.30;2.00;;;22.50;80.00;;;22.77;59.16;100101.81;4954241;28;20448;-82
2023/07/12 07:51:37;;;;;;;6.38;2.10;;;22.60;78.80;;;22.77;57.69;100104.53;4954188;28;20403;-82
2023/07/12 07:54:04;;;;;;;4.75;1.80;;;22.60;77.00;;;22.85;57.64;100104.63;4956798;28;20134;-82
2023/07/12 07:56:31;;;;;;;5.95;1.90;;;22.70;77.00;;;22.90;56.40;100111.13;4956471;28;20050;-81
2023/07/12 07:59:00;;;;;;;6.90;2.00;;;22.80;75.80;;;22.95;56.33;100111.00;4956462;28;20039;-81
2023/07/12 08:01:28;;;;;;;6.05;1.70;;;22.80;75.40;;;22.86;55.92;100108.97;4948136;28;20083;-82
2023/07/12 08:03:56;;;;;;;6.55;2.00;;;22.80;74.60;;;22.92;55.18;100109.69;4973470;28;20051;-82
2023/07/12 08:06:23;;;;;;;5.22;1.70;;;22.70;73.80;;;23.00;55.19;100113.63;4962604;28;20051;-82
2023/07/12 08:08:51;;;;;;;7.63;2.03;;;22.80;73.90;;;23.00;54.62;100109.00;4956292;28;20126;-82
2023/07/12 08:11:18;;;;;;;8.25;1.85;;;22.80;73.20;;;22.86;55.47;100110.88;4945646;28;20808;-82
2023/07/12 08:13:45;;;;;;;6.10;1.83;;;22.80;74.10;;;23.08;55.30;100111.00;4961215;28;20143;-82
2023/07/12 08:16:14;;;;;;;6.70;2.00;;;22.90;74.00;;;23.09;52.77;100107.19;4963958;28;20099;-81
2023/07/12 08:18:42;;;;;;;7.18;1.88;;;23.00;71.10;;;23.10;53.19;100106.06;4938384;29;20046;-81
2023/07/12 08:21:10;;;;;;;10.55;2.05;;;22.90;71.30;;;23.16;53.89;100114.13;4970387;28;20047;-81
2023/07/12 08:23:37;;;;;;;6.10;2.00;;;23.00;72.20;;;23.13;52.60;100101.91;4939126;29;20554;-81
2023/07/12 08:26:05;;;;;;;6.32;2.08;;;23.10;71.10;;;23.19;55.17;100116.25;4954233;29;20089;-81
2023/07/12 08:28:32;;;;;;;5.05;1.75;;;23.10;73.80;;;23.17;53.10;100113.00;4951574;28;20054;-82
2023/07/12 08:30:59;;;;;;;7.00;2.13;;;23.10;71.30;;;23.08;53.36;100116.47;4959108;28;20155;-82
2023/07/12 08:33:28;;;;;;;7.47;1.95;;;22.90;71.30;;;23.00;52.99;100122.59;4944734;29;20135;-82
2023/07/12 08:35:56;;;;;;;7.75;2.45;;;22.80;71.10;;;23.16;53.50;100119.56;4950208;29;20043;-82
2023/07/12 08:38:24;;;;;;;4.88;1.92;;;22.90;71.90;;;22.98;54.37;100122.06;4953810;28;20039;-82
2023/07/12 08:40:52;;;;;;;5.53;2.30;;;22.80;72.30;;;22.86;52.59;100122.56;4954330;28;20078;-82
2023/07/12 08:43:23;;;;;;;5.75;1.80;;;22.80;70.60;;;22.74;53.61;100127.69;4948001;28;20400;-82
2023/07/12 08:45:56;;;;;;;6.90;2.30;;;22.60;71.80;;;22.61;53.16;100118.41;4943127;28;20042;-82
2023/07/12 08:48:25;;;;;;;10.20;2.00;;;22.40;71.20;;;22.47;54.08;100138.50;4945374;29;20070;-82
2023/07/12 08:50:54;;;;;;;6.88;2.20;;;22.20;72.40;;;22.58;54.72;100131.78;4953939;29;20085;-82
2023/07/12 08:53:27;;;;;;;7.43;2.30;;;22.30;73.60;;;22.66;54.81;100136.53;4946259;28;20599;-82
2023/07/12 08:55:55;;;;;;;8.05;2.47;;;22.30;74.10;;;22.55;54.21;100130.50;4954238;28;20047;-82
2023/07/12 08:58:27;;;;;;;7.57;2.20;;;22.20;73.00;;;22.57;55.16;100138.34;4954927;28;20047;-82
2023/07/12 09:01:02;;;;;;;14.85;2.80;;;22.20;74.60;;;22.42;53.95;100141.31;4968222;23;20086;-85
2023/07/12 09:03:29;;;;;;;8.13;1.95;;;22.00;72.90;;;22.51;53.87;100140.34;4953073;28;20061;-85
2023/07/12 09:05:59;;;;;;;6.22;2.58;;;22.10;73.50;;;22.65;53.16;100142.28;4954041;28;20767;-84
2023/07/12 09:08:35;;;;;;;6.03;2.08;;;22.30;72.30;;;22.69;54.41;100154.16;4953439;28;20703;-84
2023/07/12 09:11:02;;;;;;;9.55;2.47;;;22.40;73.50;;;22.62;52.52;100144.47;4960675;28;20149;-84
2023/07/12 09:13:34;;;;;;;7.47;2.20;;;22.30;71.00;;;22.66;54.17;100152.06;4954465;28;20054;-84
2023/07/12 09:16:03;;;;;;;5.93;1.98;;;22.30;73.50;;;22.61;53.33;100148.31;4953435;29;20142;-84
2023/07/12 09:18:36;;;;;;;6.00;2.00;;;22.30;72.00;;;22.53;51.86;100151.72;4951309;28;20154;-86
2023/07/12 09:21:15;;;;;;;7.13;2.10;;;22.20;70.20;;;22.70;54.15;100162.03;4959457;28;20086;-83
2023/07/12 09:23:45;;;;;;;8.27;2.20;;;22.50;72.10;;;22.81;52.66;100157.22;4938360;29;20048;-83
2023/07/12 09:26:21;;;;;;;11.48;2.25;;;22.60;70.90;;;22.63;51.80;100159.69;4950700;28;20583;-83
2023/07/12 09:28:50;;;;;;;7.05;2.60;;;22.50;69.50;;;22.61;52.02;100151.03;4945158;29;20138;-83
2023/07/12 09:31:24;;;;;;;8.30;2.42;;;22.40;70.10;;;22.56;53.32;100150.31;4944418;29;20074;-84
2023/07/12 09:33:58;;;;;;;7.85;2.20;;;22.30;71.70;;;22.55;52.80;100157.66;4951839;29;20124;-83
2023/07/12 09:36:27;;;;;;;7.60;2.17;;;22.30;71.20;;;22.46;53.31;100156.75;4952824;28;20059;-84
2023/07/12 09:39:01;;;;;;;7.70;2.20;;;22.20;71.70;;;22.50;54.16;100157.75;4947312;28;20146;-84
2023/07/12 09:41:29;;;;;;;7.53;2.25;;;22.20;72.50;;;22.51;53.63;100158.56;4938415;28;20080;-83
2023/07/12 09:43:59;;;;;;;6.63;2.58;;;22.20;72.10;;;22.52;53.72;100160.16;4967956;28;20513;-83
2023/07/12 09:46:35;;;;;;;5.72;1.90;;;22.30;72.70;;;22.56;52.35;100159.28;4960828;28;20053;-84
2023/07/12 09:49:10;;;;;;;8.82;2.20;;;22.30;70.50;;;22.50;51.88;100165.13;4955087;28;20114;-84
2023/07/12 09:51:56;;;;;;;6.50;2.22;;;22.20;70.30;;;22.51;52.03;100166.72;4956919;28;20047;-84
2023/07/12 09:54:34;;;;;;;10.27;2.05;;;22.20;70.30;;;22.65;52.99;100164.03;4962552;28;20101;-84
2023/07/12 09:57:08;;;;;;;9.57;2.72;;;22.40;71.20;;;22.75;53.06;100163.84;4972911;28;20175;-84
2023/07/12 09:59:53;;;;;;;6.07;2.30;;;22.50;71.10;;;22.75;52.47;100169.28;4957345;28;20138;-84
2023/07/12 10:02:40;;;;;;;7.72;2.17;;;22.60;70.40;;;22.66;51.88;100174.59;4975953;28;20066;-84
2023/07/12 10:05:13;;;;;;;9.57;2.15;;;22.50;70.00;;;22.49;52.35;100169.72;4946612;28;20079;-84
2023/07/12 10:07:58;;;;;;;7.97;2.15;;;22.20;69.90;;;22.48;52.34;100180.88;4973154;28;20110;-84
2023/07/12 10:10:36;;;;;;;6.72;2.30;;;22.20;70.50;;;22.55;54.33;100171.25;4969605;28;20067;-84
2023/07/12 10:13:20;;;;;;;7.40;2.25;;;22.30;72.70;;;22.61;53.34;100170.06;4956176;28;20043;-84
2023/07/12 10:15:49;;;;;;;7.38;1.75;;;22.40;72.00;;;22.69;52.82;100173.97;4958820;28;20482;-84
2023/07/12 10:18:19;;;;;;;7.53;2.30;;;22.40;71.40;;;22.65;53.07;100172.19;4957991;28;20059;-84
2023/07/12 10:20:47;;;;;;;8.20;2.10;;;22.40;71.30;;;22.67;52.96;100180.84;4964108;28;20058;-84
2023/07/12 10:23:19;;;;;;;8.32;2.15;;;22.40;71.30;;;22.54;52.26;100183.22;4980196;28;20049;-84